»·PEaware :: N35CF KLAX-KSJC

N35CF :: KLAX-KSJC

FLIGHT INFORMATION

Flight Status: Arrived
Operator: Privately registered:
United States
More flights under this callsign
Pilot: Anonymous 18613 (18613)
Aircraft: BEECH AIRCRAFT A90-E90 KING AIR
(BE9L)
More flights by this aircraft type
Origin: KLAX Los Angeles Intl
United States
Destination: KSJC Mineta San Jose Intl
United States
More flights between these airports :: More routes between these airports
Route: +GMN7 AVE ROBIE4
File this flight plan on PilotEdge
Remarks:
Altitude:
(Current/Filed)
6,000ft
Speed:
(Current/Filed)
220kts
Departed: 02-Dec-18 12:26 PM
Arrived: 02-Dec-18 02:02 PM
Distance/Time
Traveled:
268nm/1:36
Distance/Time
To Go:
Arrived

Flight Plot

Page will automatically refresh every two minutes.

Flight plan parsing failed; only flown route is shown


Map Options




Map Legend


Flown Route
Filed Route
Departure Airport
Arrival Airport
Navaid (VOR, NDB)
Fix

Horizontal Profiles

Position Reports

Time Latitude Longitude Heading Altitude Ground
Speed
02-Dec-18 12:10 33.933885 -118.395148 92 105ft 0kts
02-Dec-18 12:11 33.933884 -118.395148 92 105ft 0kts
02-Dec-18 12:12 33.933884 -118.395148 92 105ft 0kts
02-Dec-18 12:13 33.933885 -118.395148 92 105ft 0kts
02-Dec-18 12:14 33.933884 -118.395148 92 105ft 0kts
02-Dec-18 12:15 33.933884 -118.395148 92 105ft 0kts
02-Dec-18 12:16 33.933884 -118.395148 92 105ft 0kts
02-Dec-18 12:17 33.933884 -118.395148 92 105ft 0kts
02-Dec-18 12:18 33.933884 -118.395148 92 105ft 0kts
02-Dec-18 12:19 33.933884 -118.395148 92 105ft 0kts
02-Dec-18 12:20 33.933884 -118.395148 92 105ft 0kts
02-Dec-18 12:21 33.933884 -118.395148 92 105ft 0kts
02-Dec-18 12:22 33.933884 -118.395148 92 105ft 0kts
02-Dec-18 12:23 33.933884 -118.395148 92 105ft 0kts
02-Dec-18 12:24 33.933937 -118.394645 81 104ft 7kts
02-Dec-18 12:25 33.935161 -118.392220 82 101ft 13kts
02-Dec-18 12:26 33.935758 -118.386372 82 98ft 20kts
02-Dec-18 12:27 33.936406 -118.382772 12 95ft 0kts
02-Dec-18 12:28 33.936583 -118.382769 349 95ft 6kts
02-Dec-18 12:29 33.935234 -118.402040 264 262ft 140kts
02-Dec-18 12:30 33.929908 -118.454470 264 1822ft 159kts
02-Dec-18 12:31 33.941622 -118.498881 311 3733ft 139kts
02-Dec-18 12:32 33.965190 -118.531791 316 5761ft 112kts
02-Dec-18 12:33 33.992139 -118.569508 315 6024ft 182kts
02-Dec-18 12:34 34.024981 -118.617142 316 6018ft 178kts
02-Dec-18 12:35 34.071282 -118.628396 353 6027ft 170kts
02-Dec-18 12:36 34.116863 -118.635223 352 6023ft 168kts
02-Dec-18 12:37 34.158900 -118.639758 351 6722ft 141kts
02-Dec-18 12:38 34.197980 -118.644330 352 7391ft 152kts
02-Dec-18 12:39 34.241195 -118.648752 351 8484ft 149kts
02-Dec-18 12:40 34.276265 -118.650669 351 10202ft 116kts
02-Dec-18 12:41 34.303670 -118.649622 351 11930ft 87kts
02-Dec-18 12:42 34.338678 -118.648777 351 12035ft 158kts
02-Dec-18 12:43 34.385284 -118.655604 335 12030ft 176kts
02-Dec-18 12:44 34.431831 -118.678327 334 12032ft 183kts
02-Dec-18 12:45 34.479107 -118.701577 334 12036ft 184kts
02-Dec-18 12:46 34.526599 -118.724899 334 12038ft 184kts
02-Dec-18 12:47 34.574069 -118.748220 334 12039ft 184kts
02-Dec-18 12:48 34.621688 -118.771638 334 12034ft 184kts
02-Dec-18 12:49 34.668908 -118.794885 334 12030ft 184kts
02-Dec-18 12:50 34.716072 -118.818133 334 12027ft 184kts
02-Dec-18 12:51 34.763107 -118.841345 334 12030ft 184kts
02-Dec-18 12:52 34.809736 -118.864745 325 12027ft 182kts
02-Dec-18 12:53 34.850724 -118.899386 324 12051ft 181kts
02-Dec-18 12:54 34.891632 -118.933550 325 12068ft 181kts
02-Dec-18 12:55 34.933343 -118.967395 325 12080ft 184kts
02-Dec-18 12:56 34.975529 -119.002002 325 12091ft 186kts
02-Dec-18 12:57 35.018141 -119.037050 326 12092ft 188kts
02-Dec-18 12:58 35.061362 -119.072630 326 12013ft 189kts
02-Dec-18 12:59 35.103875 -119.107684 326 12017ft 189kts
02-Dec-18 13:00 35.147320 -119.143554 326 12020ft 190kts
02-Dec-18 13:01 35.190738 -119.179451 326 12020ft 190kts
02-Dec-18 13:02 35.234408 -119.215605 326 12019ft 190kts
02-Dec-18 13:03 35.278115 -119.251838 326 12019ft 190kts
02-Dec-18 13:04 35.320884 -119.287319 326 12018ft 190kts
02-Dec-18 13:05 35.352459 -119.313511 326 12018ft 190kts
02-Dec-18 13:06 35.396015 -119.349632 326 12017ft 190kts
02-Dec-18 13:07 35.439491 -119.385680 326 12017ft 190kts
02-Dec-18 13:08 35.483154 -119.421874 326 12016ft 190kts
02-Dec-18 13:09 35.527193 -119.457423 327 11998ft 191kts
02-Dec-18 13:10 35.562557 -119.502354 287 11998ft 198kts
02-Dec-18 13:11 35.574268 -119.568595 288 11997ft 199kts
02-Dec-18 13:12 35.586182 -119.634801 288 11996ft 199kts
02-Dec-18 13:13 35.597745 -119.700837 287 12000ft 199kts
02-Dec-18 13:14 35.609524 -119.767435 287 12027ft 199kts
02-Dec-18 13:15 35.621283 -119.833840 287 12024ft 199kts
02-Dec-18 13:16 35.633075 -119.900493 287 12021ft 199kts
02-Dec-18 13:17 35.644845 -119.967201 287 12019ft 199kts
02-Dec-18 13:18 35.663581 -120.030315 297 12017ft 196kts
02-Dec-18 13:19 35.684295 -120.092459 296 12016ft 196kts
02-Dec-18 13:20 35.704830 -120.154707 296 12017ft 196kts
02-Dec-18 13:21 35.725224 -120.216976 296 12016ft 196kts
02-Dec-18 13:22 35.745585 -120.279174 296 12015ft 196kts
02-Dec-18 13:23 35.765934 -120.341554 296 12015ft 196kts
02-Dec-18 13:24 35.786247 -120.403853 296 12014ft 196kts
02-Dec-18 13:25 35.806415 -120.466040 296 12014ft 196kts
02-Dec-18 13:26 35.826740 -120.528439 296 12013ft 196kts
02-Dec-18 13:27 35.846883 -120.590768 296 12013ft 196kts
02-Dec-18 13:28 35.866897 -120.652913 296 12013ft 196kts
02-Dec-18 13:29 35.886765 -120.715419 296 12016ft 196kts
02-Dec-18 13:30 35.906928 -120.778223 296 12016ft 196kts
02-Dec-18 13:31 35.926980 -120.840855 296 12015ft 196kts
02-Dec-18 13:32 35.947044 -120.903481 296 12015ft 196kts
02-Dec-18 13:33 35.967143 -120.966306 296 12015ft 196kts
02-Dec-18 13:34 35.995620 -121.019970 324 12016ft 190kts
02-Dec-18 13:35 36.039004 -121.057384 325 12014ft 190kts
02-Dec-18 13:36 36.082235 -121.094840 325 12015ft 189kts
02-Dec-18 13:37 36.125009 -121.131410 325 12025ft 189kts
02-Dec-18 13:38 36.168240 -121.168829 325 12027ft 189kts
02-Dec-18 13:39 36.211459 -121.206354 325 12028ft 189kts
02-Dec-18 13:40 36.254420 -121.243711 325 12028ft 189kts
02-Dec-18 13:41 36.297453 -121.281201 325 12027ft 189kts
02-Dec-18 13:42 36.340256 -121.318566 325 12027ft 189kts
02-Dec-18 13:43 36.383293 -121.356208 325 11993ft 190kts
02-Dec-18 13:44 36.426421 -121.393944 325 11980ft 189kts
02-Dec-18 13:45 36.469340 -121.431531 325 11980ft 189kts
02-Dec-18 13:46 36.514000 -121.470648 324 11374ft 206kts
02-Dec-18 13:47 36.561895 -121.512698 324 10562ft 214kts
02-Dec-18 13:48 36.610806 -121.555738 324 9746ft 217kts
02-Dec-18 13:49 36.659751 -121.598863 324 9003ft 218kts
02-Dec-18 13:50 36.716986 -121.602977 4 8177ft 218kts
02-Dec-18 13:51 36.774194 -121.594769 1 7009ft 200kts
02-Dec-18 13:52 36.828697 -121.589377 2 5999ft 203kts
02-Dec-18 13:53 36.885997 -121.594197 348 5487ft 211kts
02-Dec-18 13:54 36.942577 -121.608145 348 4144ft 207kts
02-Dec-18 13:55 36.997881 -121.622427 348 3989ft 212kts
02-Dec-18 13:56 37.055738 -121.637372 348 3987ft 210kts
02-Dec-18 13:57 37.110603 -121.654235 321 3978ft 210kts
02-Dec-18 13:58 37.153738 -121.701704 319 3988ft 211kts
02-Dec-18 13:59 37.199206 -121.751225 319 3610ft 216kts
02-Dec-18 14:00 37.234703 -121.789940 319 3141ft 121kts
02-Dec-18 14:01 37.261676 -121.819349 319 2541ft 148kts
02-Dec-18 14:02 37.293433 -121.854066 319 1727ft 151kts
02-Dec-18 14:03 37.325011 -121.888621 318 908ft 151kts
02-Dec-18 14:04 37.354689 -121.921172 318 120ft 111kts
02-Dec-18 14:05 37.362040 -121.930965 227 48ft 9kts
02-Dec-18 14:06 37.361285 -121.933819 320 49ft 11kts
02-Dec-18 14:07 37.361243 -121.934615 139 49ft 0kts
02-Dec-18 14:08 37.361243 -121.934615 139 49ft 0kts

Navigation Log

Ident Type
Flight plan parsing failed, navigation log unavailable